createdAt,value
2022-08-25T00:00:44.149Z,23.21
2022-08-25T00:05:51.462Z,23.14
2022-08-25T00:11:03.238Z,23.05
2022-08-25T00:16:08.657Z,22.95
2022-08-25T00:21:16.591Z,22.88
2022-08-25T00:26:21.013Z,22.83
2022-08-25T00:31:37.917Z,22.77
2022-08-25T00:36:43.327Z,22.71
2022-08-25T00:41:50.329Z,22.65
2022-08-25T00:46:55.170Z,22.56
2022-08-25T00:52:10.950Z,22.47
2022-08-25T00:57:34.508Z,22.39
2022-08-25T01:02:40.069Z,22.32
2022-08-25T01:07:44.642Z,22.23
2022-08-25T01:12:46.682Z,22.19
2022-08-25T01:17:50.893Z,22.13
2022-08-25T01:22:55.539Z,22.05
2022-08-25T01:28:03.233Z,22.04
2022-08-25T01:33:09.946Z,21.99
2022-08-25T01:38:15.301Z,21.91
2022-08-25T01:43:35.980Z,21.86
2022-08-25T01:48:44.255Z,21.76
2022-08-25T01:53:46.015Z,21.67
2022-08-25T01:58:51.221Z,21.60
2022-08-25T02:03:56.713Z,21.54
2022-08-25T02:09:02.579Z,21.48
2022-08-25T02:14:09.800Z,21.40
2022-08-25T02:19:15.562Z,21.36
2022-08-25T02:24:17.301Z,21.31
2022-08-25T02:29:20.058Z,21.26
2022-08-25T02:34:24.313Z,21.22
2022-08-25T02:39:26.258Z,21.16
2022-08-25T02:44:31.741Z,21.12
2022-08-25T02:49:33.600Z,21.08
2022-08-25T02:54:36.323Z,21.06
2022-08-25T02:59:39.235Z,21.02
2022-08-25T03:04:41.056Z,20.97
2022-08-25T03:09:48.520Z,20.88
2022-08-25T03:14:54.986Z,20.85
2022-08-25T03:19:57.754Z,20.81
2022-08-25T03:25:23.882Z,20.76
2022-08-25T03:30:29.475Z,20.73
2022-08-25T03:35:35.937Z,20.69
2022-08-25T03:40:39.957Z,20.62
2022-08-25T03:45:46.089Z,20.61
2022-08-25T03:50:54.396Z,20.56
2022-08-25T03:55:57.742Z,20.52
2022-08-25T04:01:00.650Z,20.49
2022-08-25T04:06:04.316Z,20.46
2022-08-25T04:11:17.784Z,20.42
2022-08-25T04:16:22.015Z,20.37
2022-08-25T04:21:29.409Z,20.35
2022-08-25T04:26:39.165Z,20.33
2022-08-25T04:31:42.782Z,20.56
2022-08-25T04:36:47.283Z,20.38
2022-08-25T04:41:54.495Z,20.27
2022-08-25T04:47:04.698Z,20.23
2022-08-25T04:52:12.978Z,20.20
2022-08-25T04:57:16.152Z,20.20
2022-08-25T05:02:25.291Z,20.19
2022-08-25T05:07:27.277Z,20.24
2022-08-25T05:12:29.065Z,20.32
2022-08-25T05:17:30.864Z,20.30
2022-08-25T05:22:35.061Z,20.33
2022-08-25T05:27:39.039Z,20.36
2022-08-25T05:32:45.591Z,20.40
2022-08-25T05:37:51.653Z,20.41
2022-08-25T05:42:56.843Z,20.43
2022-08-25T05:47:58.645Z,20.54
2022-08-25T05:53:00.451Z,20.46
2022-08-25T05:58:05.245Z,20.47
2022-08-25T06:03:08.056Z,20.53
2022-08-25T06:08:12.196Z,20.58
2022-08-25T06:13:18.824Z,20.66
2022-08-25T06:18:31.111Z,20.75
2022-08-25T06:23:35.077Z,20.85
2022-08-25T06:28:39.200Z,20.93
2022-08-25T06:33:40.985Z,21.03
2022-08-25T06:38:47.611Z,21.14
2022-08-25T06:43:55.945Z,21.25
2022-08-25T06:49:06.751Z,21.39
2022-08-25T06:54:10.988Z,21.51
2022-08-25T06:59:12.897Z,21.60
2022-08-25T07:04:23.298Z,21.74
2022-08-25T07:09:29.970Z,21.87
2022-08-25T07:14:36.395Z,21.97
2022-08-25T07:19:38.225Z,22.05
2022-08-25T07:24:45.506Z,22.19
2022-08-25T07:29:50.087Z,22.33
2022-08-25T07:35:13.839Z,22.41
2022-08-25T07:40:23.874Z,22.57
2022-08-25T07:45:32.736Z,22.71
2022-08-25T07:50:35.598Z,22.84
2022-08-25T07:55:38.068Z,23.05
2022-08-25T08:00:43.326Z,23.22
2022-08-25T08:05:49.054Z,23.39
2022-08-25T08:11:05.537Z,23.49
2022-08-25T08:16:13.948Z,23.67
2022-08-25T08:21:26.843Z,23.80
2022-08-25T08:26:55.230Z,23.92
2022-08-25T08:31:56.849Z,24.06
2022-08-25T08:36:59.374Z,24.18
2022-08-25T08:42:19.783Z,24.34
2022-08-25T08:47:43.144Z,24.54
2022-08-25T08:53:01.363Z,24.73
2022-08-25T08:58:10.707Z,24.88
2022-08-25T09:03:40.398Z,25.05
2022-08-25T09:08:44.974Z,25.21
2022-08-25T09:14:13.590Z,25.40
2022-08-25T09:19:41.783Z,25.58
2022-08-25T09:25:39.685Z,25.73
2022-08-25T09:30:50.627Z,25.82
2022-08-25T09:35:57.549Z,25.86
2022-08-25T09:41:03.856Z,26.06
2022-08-25T09:46:20.739Z,26.28
2022-08-25T09:51:42.951Z,26.48
2022-08-25T09:57:05.471Z,26.65
2022-08-25T10:02:28.986Z,26.80
2022-08-25T10:07:39.884Z,26.92
2022-08-25T10:12:44.753Z,27.02
2022-08-25T10:17:56.588Z,27.14
2022-08-25T10:23:18.977Z,27.17
2022-08-25T10:28:38.421Z,27.28
2022-08-25T10:34:02.035Z,27.42
2022-08-25T10:39:31.575Z,27.56
2022-08-25T10:45:23.434Z,27.63
2022-08-25T10:50:49.078Z,27.80
2022-08-25T10:56:21.007Z,27.86
2022-08-25T11:01:43.745Z,28.04
2022-08-25T11:07:04.788Z,28.19
2022-08-25T11:12:13.601Z,28.37
2022-08-25T11:17:18.699Z,28.43
2022-08-25T11:22:46.623Z,28.57
2022-08-25T11:27:50.293Z,28.79
2022-08-25T11:32:55.693Z,29.02
2022-08-25T11:38:09.111Z,29.32
2022-08-25T11:43:35.996Z,29.56
2022-08-25T11:48:53.217Z,29.67
2022-08-25T11:54:24.766Z,30.06
2022-08-25T11:59:50.321Z,30.34
2022-08-25T12:04:55.603Z,30.61
2022-08-25T12:10:03.268Z,30.88
2022-08-25T12:15:20.621Z,31.21
2022-08-25T12:20:54.907Z,31.51
2022-08-25T12:26:12.597Z,31.74
2022-08-25T12:31:59.130Z,32.10
2022-08-25T12:37:15.907Z,32.58
2022-08-25T12:42:37.942Z,32.77
2022-08-25T12:47:47.414Z,32.96
2022-08-25T12:52:49.378Z,33.29
2022-08-25T12:57:58.719Z,33.50
2022-08-25T13:03:27.736Z,33.72
2022-08-25T13:08:46.656Z,34.12
2022-08-25T13:13:55.364Z,34.26
2022-08-25T13:18:59.560Z,34.32
2022-08-25T13:24:05.890Z,34.67
2022-08-25T13:29:10.829Z,34.95
2022-08-25T13:34:23.931Z,35.24
2022-08-25T13:39:55.415Z,35.58
2022-08-25T13:45:01.379Z,35.82
2022-08-25T13:50:33.815Z,35.71
2022-08-25T13:55:51.236Z,35.72
2022-08-25T14:01:47.747Z,35.62
2022-08-25T14:06:48.942Z,36.11
2022-08-25T14:11:59.508Z,36.32
2022-08-25T14:17:28.618Z,36.56
2022-08-25T14:22:34.619Z,36.88
2022-08-25T14:28:05.349Z,37.13
2022-08-25T14:33:09.691Z,37.42
2022-08-25T14:38:12.155Z,37.35
2022-08-25T14:43:17.131Z,37.47
2022-08-25T14:48:27.381Z,37.80
2022-08-25T14:53:33.314Z,38.34
2022-08-25T14:58:51.123Z,38.63
2022-08-25T15:03:58.243Z,38.41
2022-08-25T15:09:11.310Z,38.25
2022-08-25T15:14:17.482Z,38.38
2022-08-25T15:19:23.528Z,38.66
2022-08-25T15:24:28.699Z,39.48
2022-08-25T15:29:31.914Z,39.70
2022-08-25T15:34:37.194Z,39.72
2022-08-25T15:39:43.264Z,39.87
2022-08-25T15:44:53.550Z,40.12
2022-08-25T15:50:04.541Z,40.30
2022-08-25T15:55:10.707Z,40.48
2022-08-25T16:00:16.762Z,40.57
2022-08-25T16:05:26.269Z,40.49
2022-08-25T16:10:31.301Z,40.43
2022-08-25T16:15:38.987Z,40.24
2022-08-25T16:20:46.368Z,39.12
2022-08-25T16:25:58.215Z,37.40
2022-08-25T16:31:03.843Z,36.47
2022-08-25T16:36:16.837Z,35.87
2022-08-25T16:41:26.089Z,35.14
2022-08-25T16:46:30.467Z,34.44
2022-08-25T16:51:37.526Z,34.00
2022-08-25T16:56:42.237Z,33.48
2022-08-25T17:01:47.224Z,33.22
2022-08-25T17:06:56.238Z,32.99
2022-08-25T17:12:05.153Z,32.69
2022-08-25T17:17:07.386Z,32.43
2022-08-25T17:22:14.257Z,32.17
2022-08-25T17:27:19.163Z,31.88
2022-08-25T17:32:28.848Z,31.73
2022-08-25T17:37:32.093Z,31.50
2022-08-25T17:42:36.187Z,31.31
2022-08-25T17:47:40.399Z,31.74
2022-08-25T17:52:42.331Z,31.11
2022-08-25T17:57:44.097Z,30.78
2022-08-25T18:02:52.354Z,30.55
2022-08-25T18:07:54.422Z,30.32
2022-08-25T18:13:02.074Z,30.10
2022-08-25T18:18:04.918Z,29.86
2022-08-25T18:23:09.694Z,30.22
2022-08-25T18:28:12.081Z,29.57
2022-08-25T18:33:14.482Z,29.30
2022-08-25T18:38:37.556Z,29.68
2022-08-25T18:43:41.851Z,29.06
2022-08-25T18:48:47.529Z,28.81
2022-08-25T18:53:54.701Z,28.59
2022-08-25T18:59:07.811Z,28.46
2022-08-25T19:04:11.788Z,28.32
2022-08-25T19:09:15.952Z,28.15
2022-08-25T19:14:20.239Z,28.03
2022-08-25T19:19:24.308Z,27.88
2022-08-25T19:24:29.800Z,27.70
2022-08-25T19:29:35.037Z,27.62
2022-08-25T19:34:42.068Z,27.48
2022-08-25T19:39:52.928Z,27.37
2022-08-25T19:44:55.609Z,27.25
2022-08-25T19:49:58.523Z,27.19
2022-08-25T19:55:05.551Z,27.19
2022-08-25T20:00:14.176Z,27.12
2022-08-25T20:05:23.591Z,26.99
2022-08-25T20:10:28.312Z,26.85
2022-08-25T20:15:34.372Z,26.75
2022-08-25T20:20:44.289Z,26.62
2022-08-25T20:25:46.061Z,26.47
2022-08-25T20:30:47.906Z,26.37
2022-08-25T20:35:50.808Z,26.30
2022-08-25T20:40:55.032Z,26.22
2022-08-25T20:46:01.517Z,26.18
2022-08-25T20:51:07.518Z,26.07
2022-08-25T20:56:16.634Z,26.02
2022-08-25T21:01:24.149Z,25.90
2022-08-25T21:06:28.427Z,25.85
2022-08-25T21:11:35.216Z,25.78
2022-08-25T21:16:38.209Z,25.68
2022-08-25T21:21:40.499Z,25.62
2022-08-25T21:26:48.814Z,25.56
2022-08-25T21:31:54.023Z,25.44
2022-08-25T21:37:04.458Z,25.42
2022-08-25T21:47:11.452Z,25.21
2022-08-25T21:52:17.731Z,25.15
2022-08-25T21:57:23.796Z,25.09
2022-08-25T22:02:29.935Z,24.98
2022-08-25T22:07:34.622Z,24.90
2022-08-25T22:12:42.077Z,24.82
2022-08-25T22:17:48.191Z,24.78
2022-08-25T22:22:52.560Z,24.74
2022-08-25T22:27:56.667Z,24.71
2022-08-25T22:32:59.842Z,24.60
2022-08-25T22:38:04.863Z,24.54
2022-08-25T22:43:10.950Z,24.51
2022-08-25T22:48:12.867Z,24.42
2022-08-25T22:53:15.444Z,24.32
2022-08-25T22:58:17.155Z,24.27
2022-08-25T23:03:22.221Z,24.17
2022-08-25T23:08:39.186Z,24.10
2022-08-25T23:13:47.390Z,24.04
2022-08-25T23:18:53.931Z,23.97
2022-08-25T23:23:58.589Z,23.91
2022-08-25T23:29:00.653Z,23.85
2022-08-25T23:34:05.552Z,23.80
2022-08-25T23:39:09.800Z,23.76
2022-08-25T23:44:17.191Z,23.69
2022-08-25T23:49:24.251Z,23.66
2022-08-25T23:54:31.854Z,23.61
2022-08-25T23:59:34.371Z,23.54
